CEN weather

Ciudad Obregón International Airport
Ciudad Obregón, Sonora, Mexico

Public forecast

Using degrees Celsius for public forecast. Weather courtesy of forecast.io.

METAR (pilot weather report)

Retrieved 2019/06/17 23:44 UTC (28 minutes ago):

MMCN 172344Z 22009KT 10SM SKC 35/12 A2974 RMK SLP072 HZY

TAF (pilot weather forecast)

Retrieved 2019/06/17 18:39 UTC (6 hours ago):

TAF MMCN 171636Z 1718/1818 14010KT P6SM SKC FM172100 24012KT P6SM SKC FM180300 12005KT P6SM SKC FM181500 14012KT P6SM SKC